createdAt,value
2018-06-18T00:00:05.559Z,97439.30
2018-06-18T00:05:10.423Z,97438.99
2018-06-18T00:07:41.121Z,97433.08
2018-06-18T00:10:10.833Z,97430.53
2018-06-18T00:12:40.520Z,97434.80
2018-06-18T00:15:10.546Z,97434.06
2018-06-18T00:17:40.305Z,97433.42
2018-06-18T00:20:10.003Z,97431.29
2018-06-18T00:22:39.822Z,97433.89
2018-06-18T00:25:09.559Z,97433.13
2018-06-18T00:27:39.240Z,97429.69
2018-06-18T00:30:08.615Z,97428.14
2018-06-18T00:32:38.171Z,97430.38
2018-06-18T00:35:07.898Z,97430.77
2018-06-18T00:37:38.137Z,97426.38
2018-06-18T00:40:07.911Z,97426.39
2018-06-18T00:42:37.619Z,97430.41
2018-06-18T00:45:07.131Z,97427.41
2018-06-18T00:47:37.629Z,97425.60
2018-06-18T00:50:07.438Z,97429.05
2018-06-18T00:52:37.113Z,97426.66
2018-06-18T00:55:06.800Z,97416.88
2018-06-18T00:57:37.509Z,97425.77
2018-06-18T01:00:06.935Z,97422.55
2018-06-18T01:02:36.156Z,97426.63
2018-06-18T01:05:05.752Z,97426.64
2018-06-18T01:07:35.605Z,97426.92
2018-06-18T01:10:05.411Z,97427.47
2018-06-18T01:12:35.195Z,97425.23
2018-06-18T01:20:29.831Z,97425.48
2018-06-18T01:23:10.561Z,97425.94
2018-06-18T01:28:15.620Z,97420.95
2018-06-18T01:30:45.176Z,97422.83
2018-06-18T01:33:14.886Z,97422.53
2018-06-18T01:38:19.481Z,97417.23
2018-06-18T01:40:48.852Z,97423.88
2018-06-18T01:43:19.079Z,97412.18
2018-06-18T01:45:48.775Z,97414.82
2018-06-18T01:48:18.423Z,97414.27
2018-06-18T01:53:24.966Z,97417.23
2018-06-18T01:55:54.536Z,97403.08
2018-06-18T01:58:24.208Z,97410.13
2018-06-18T02:03:29.764Z,97409.27
2018-06-18T02:05:59.949Z,97413.34
2018-06-18T02:08:29.626Z,97414.08
2018-06-18T02:10:59.393Z,97408.25
2018-06-18T02:13:29.083Z,97409.32
2018-06-18T02:15:59.389Z,97419.53
2018-06-18T02:18:29.025Z,97416.55
2018-06-18T02:20:58.700Z,97423.82
2018-06-18T02:23:28.046Z,97418.97
2018-06-18T02:26:01.101Z,97427.59
2018-06-18T02:28:36.175Z,97422.45
2018-06-18T02:31:11.271Z,97422.73
2018-06-18T02:33:46.245Z,97426.49
2018-06-18T02:36:21.268Z,97427.04
2018-06-18T02:38:51.900Z,97426.50
2018-06-18T02:41:22.168Z,97422.72
2018-06-18T02:43:52.301Z,97426.23
2018-06-18T02:46:21.940Z,97430.78
2018-06-18T02:48:51.594Z,97436.95
2018-06-18T02:51:22.339Z,97435.88
2018-06-18T02:53:52.020Z,97434.27
2018-06-18T02:56:27.988Z,97440.21
2018-06-18T02:58:57.737Z,97444.17
2018-06-18T03:01:27.372Z,97446.08
2018-06-18T03:06:32.556Z,97442.32
2018-06-18T03:09:02.209Z,97443.94
2018-06-18T03:11:33.540Z,97447.43
2018-06-18T03:14:03.365Z,97453.07
2018-06-18T03:16:33.074Z,97453.61
2018-06-18T03:19:07.986Z,97460.84
2018-06-18T03:21:44.083Z,97445.81
2018-06-18T03:24:18.931Z,97453.51
2018-06-18T03:26:54.604Z,97460.22
2018-06-18T03:29:26.067Z,97440.98
2018-06-18T03:31:56.287Z,97447.65
2018-06-18T03:34:26.158Z,97442.78
2018-06-18T03:36:56.595Z,97441.73
2018-06-18T03:39:27.072Z,97437.20
2018-06-18T03:41:56.849Z,97438.31
2018-06-18T03:44:46.276Z,97438.83
2018-06-18T03:47:21.558Z,97453.83
2018-06-18T03:49:52.173Z,97441.49
2018-06-18T03:52:21.767Z,97450.36
2018-06-18T03:54:54.027Z,97445.81
2018-06-18T03:57:23.832Z,97449.59
2018-06-18T03:59:53.514Z,97455.20
2018-06-18T04:02:36.170Z,97456.81
2018-06-18T04:05:11.222Z,97449.03
2018-06-18T04:08:11.639Z,97458.41
2018-06-18T04:10:46.546Z,97458.16
2018-06-18T04:13:16.412Z,97458.97
2018-06-18T04:15:48.813Z,97457.63
2018-06-18T04:20:54.112Z,97455.49
2018-06-18T04:23:24.257Z,97456.52
2018-06-18T04:28:29.568Z,97461.09
2018-06-18T04:30:59.258Z,97455.97
2018-06-18T04:33:29.055Z,97455.71
2018-06-18T04:35:58.600Z,97457.61
2018-06-18T04:38:28.244Z,97455.39
2018-06-18T04:40:57.836Z,97454.11
2018-06-18T04:43:32.736Z,97456.45
2018-06-18T04:46:07.348Z,97456.98
2018-06-18T04:48:42.332Z,97459.99
2018-06-18T04:51:12.013Z,97461.08
2018-06-18T04:53:41.596Z,97458.72
2018-06-18T04:56:11.296Z,97464.88
2018-06-18T05:01:22.545Z,97457.64
2018-06-18T05:03:52.403Z,97469.16
2018-06-18T05:06:22.149Z,97455.78
2018-06-18T05:09:06.034Z,97461.15
2018-06-18T05:11:35.675Z,97464.64
2018-06-18T05:14:05.435Z,97466.23
2018-06-18T05:16:35.172Z,97474.53
2018-06-18T05:19:05.325Z,97473.74
2018-06-18T05:21:35.077Z,97466.48
2018-06-18T05:24:04.956Z,97463.81
2018-06-18T05:26:36.521Z,97467.32
2018-06-18T05:29:06.179Z,97467.80
2018-06-18T05:31:35.967Z,97475.86
2018-06-18T05:34:06.108Z,97475.86
2018-06-18T05:36:35.772Z,97469.98
2018-06-18T05:39:08.082Z,97476.95
2018-06-18T05:41:37.927Z,97475.31
2018-06-18T05:44:07.522Z,97474.52
2018-06-18T05:46:37.520Z,97482.02
2018-06-18T05:49:07.305Z,97484.42
2018-06-18T05:51:36.911Z,97489.80
2018-06-18T05:54:06.236Z,97487.91
2018-06-18T05:56:35.705Z,97492.45
2018-06-18T05:59:05.056Z,97500.20
2018-06-18T06:01:41.589Z,97503.70
2018-06-18T06:04:11.348Z,97499.99
2018-06-18T06:06:41.010Z,97500.44
2018-06-18T06:09:12.323Z,97505.84
2018-06-18T06:11:42.127Z,97502.03
2018-06-18T06:14:11.690Z,97504.35
2018-06-18T06:16:40.993Z,97506.52
2018-06-18T06:19:10.770Z,97518.59
2018-06-18T06:21:40.551Z,97507.45
2018-06-18T06:24:10.293Z,97509.91
2018-06-18T06:26:39.690Z,97517.19
2018-06-18T06:29:09.284Z,97523.77
2018-06-18T06:31:39.006Z,97529.15
2018-06-18T06:34:08.887Z,97541.34
2018-06-18T06:36:38.475Z,97531.53
2018-06-18T06:39:09.854Z,97542.77
2018-06-18T06:41:40.729Z,97535.28
2018-06-18T06:44:11.263Z,97535.40
2018-06-18T06:46:40.958Z,97529.57
2018-06-18T06:49:10.836Z,97535.59
2018-06-18T06:51:40.598Z,97543.45
2018-06-18T06:54:12.220Z,97547.91
2018-06-18T06:56:41.895Z,97551.55
2018-06-18T06:59:11.636Z,97555.00
2018-06-18T07:01:41.274Z,97559.19
2018-06-18T07:04:11.049Z,97548.33
2018-06-18T07:06:40.689Z,97560.39
2018-06-18T07:09:11.903Z,97555.36
2018-06-18T07:11:42.423Z,97560.69
2018-06-18T07:14:12.180Z,97548.94
2018-06-18T07:16:41.819Z,97562.59
2018-06-18T07:19:11.627Z,97574.72
2018-06-18T07:21:42.219Z,97565.95
2018-06-18T07:24:11.665Z,97549.02
2018-06-18T07:26:41.343Z,97562.29
2018-06-18T07:29:11.165Z,97572.97
2018-06-18T07:31:40.932Z,97566.27
2018-06-18T07:34:10.673Z,97576.16
2018-06-18T07:36:40.509Z,97568.17
2018-06-18T07:39:10.233Z,97562.05
2018-06-18T07:41:39.858Z,97555.31
2018-06-18T07:44:09.149Z,97566.41
2018-06-18T07:46:38.748Z,97569.54
2018-06-18T07:49:08.839Z,97570.78
2018-06-18T07:51:38.847Z,97574.88
2018-06-18T07:54:09.002Z,97578.73
2018-06-18T07:56:38.852Z,97568.47
2018-06-18T07:59:08.872Z,97568.42
2018-06-18T08:01:38.931Z,97580.98
2018-06-18T08:04:08.888Z,97582.52
2018-06-18T08:06:38.955Z,97567.35
2018-06-18T08:09:11.997Z,97580.10
2018-06-18T08:14:19.203Z,97572.00
2018-06-18T08:16:48.896Z,97590.95
2018-06-18T08:19:18.767Z,97558.52
2018-06-18T08:21:48.461Z,97573.67
2018-06-18T08:24:18.190Z,97574.53
2018-06-18T08:26:47.896Z,97569.31
2018-06-18T08:29:17.745Z,97559.77
2018-06-18T08:31:47.353Z,97569.77
2018-06-18T08:34:16.988Z,97557.89
2018-06-18T08:36:46.269Z,97551.31
2018-06-18T08:39:15.764Z,97567.25
2018-06-18T08:44:21.935Z,97569.34
2018-06-18T08:46:51.766Z,97571.77
2018-06-18T08:49:22.137Z,97573.23
2018-06-18T08:51:57.167Z,97582.70
2018-06-18T08:54:31.857Z,97583.83
2018-06-18T08:57:06.682Z,97584.33
2018-06-18T08:59:41.551Z,97585.43
2018-06-18T09:02:11.050Z,97584.69
2018-06-18T09:04:44.512Z,97579.04
2018-06-18T09:07:17.112Z,97569.86
2018-06-18T09:09:46.787Z,97579.88
2018-06-18T09:12:16.455Z,97568.53
2018-06-18T09:17:20.765Z,97573.83
2018-06-18T09:19:50.478Z,97585.98
2018-06-18T09:22:20.216Z,97583.04
2018-06-18T09:24:49.933Z,97590.77
2018-06-18T09:27:19.834Z,97577.98
2018-06-18T09:29:54.623Z,97584.28
2018-06-18T09:32:24.447Z,97589.45
2018-06-18T09:34:53.896Z,97579.97
2018-06-18T09:37:23.517Z,97587.59
2018-06-18T09:39:53.312Z,97607.01
2018-06-18T09:42:23.004Z,97593.63
2018-06-18T09:44:52.680Z,97594.52
2018-06-18T09:47:22.378Z,97588.32
2018-06-18T09:49:57.244Z,97593.70
2018-06-18T09:52:31.993Z,97584.19
2018-06-18T09:55:06.869Z,97594.92
2018-06-18T09:57:41.768Z,97603.11
2018-06-18T10:00:22.489Z,97602.18
2018-06-18T10:02:52.057Z,97602.25
2018-06-18T10:05:21.638Z,97600.63
2018-06-18T10:07:51.383Z,97614.75
2018-06-18T10:10:21.153Z,97617.33
2018-06-18T10:12:50.956Z,97608.89
2018-06-18T10:15:20.618Z,97610.41
2018-06-18T10:20:25.952Z,97611.38
2018-06-18T10:22:55.400Z,97622.37
2018-06-18T10:25:24.913Z,97621.56
2018-06-18T10:27:54.504Z,97617.38
2018-06-18T10:30:24.106Z,97622.36
2018-06-18T10:32:58.987Z,97614.56
2018-06-18T10:35:33.920Z,97615.39
2018-06-18T10:38:08.914Z,97622.17
2018-06-18T10:40:43.639Z,97629.59
2018-06-18T10:43:18.497Z,97616.64
2018-06-18T10:45:48.624Z,97612.52
2018-06-18T10:48:18.303Z,97620.66
2018-06-18T10:50:48.397Z,97626.70
2018-06-18T10:53:18.057Z,97617.03
2018-06-18T10:55:47.656Z,97624.09
2018-06-18T10:58:17.402Z,97620.64
2018-06-18T11:00:54.101Z,97613.30
2018-06-18T11:03:24.282Z,97613.14
2018-06-18T11:05:59.200Z,97612.75
2018-06-18T11:08:28.880Z,97619.80
2018-06-18T11:10:58.522Z,97613.64
2018-06-18T11:13:28.454Z,97617.20
2018-06-18T11:15:58.802Z,97621.31
2018-06-18T11:18:33.819Z,97622.37
2018-06-18T11:21:08.734Z,97612.23
2018-06-18T11:23:43.773Z,97611.94
2018-06-18T11:26:18.788Z,97601.23
2018-06-18T11:28:48.589Z,97591.67
2018-06-18T11:31:18.238Z,97596.25
2018-06-18T11:33:47.810Z,97602.52
2018-06-18T11:36:17.416Z,97599.84
2018-06-18T11:38:47.005Z,97599.16
2018-06-18T11:41:16.581Z,97600.77
2018-06-18T11:43:46.398Z,97603.13
2018-06-18T11:46:16.002Z,97599.27
2018-06-18T11:48:45.629Z,97604.92
2018-06-18T11:53:50.779Z,97608.30
2018-06-18T11:56:20.129Z,97601.25
2018-06-18T11:58:55.625Z,97599.31
2018-06-18T12:01:30.477Z,97608.30
2018-06-18T12:04:05.378Z,97602.90
2018-06-18T12:06:40.215Z,97594.92
2018-06-18T12:09:15.157Z,97595.72
2018-06-18T12:11:46.308Z,97589.29
2018-06-18T12:14:16.832Z,97588.05
2018-06-18T12:16:46.516Z,97586.36
2018-06-18T12:19:15.901Z,97588.86
2018-06-18T12:21:45.464Z,97576.23
2018-06-18T12:24:15.640Z,97584.06
2018-06-18T12:26:45.392Z,97584.42
2018-06-18T12:29:15.731Z,97592.65
2018-06-18T12:31:45.619Z,97594.19
2018-06-18T12:34:15.783Z,97593.94
2018-06-18T12:36:45.816Z,97605.83
2018-06-18T12:39:15.681Z,97598.18
2018-06-18T12:44:24.531Z,97599.39
2018-06-18T12:46:59.530Z,97589.45
2018-06-18T12:49:34.476Z,97586.42
2018-06-18T12:52:09.989Z,97594.02
2018-06-18T12:54:45.533Z,97587.73
2018-06-18T12:57:15.886Z,97591.44
2018-06-18T12:59:45.964Z,97589.85
2018-06-18T13:02:25.186Z,97587.38
2018-06-18T13:04:57.025Z,97589.53
2018-06-18T13:07:27.252Z,97587.38
2018-06-18T13:09:58.016Z,97586.45
2018-06-18T13:12:28.060Z,97580.48
2018-06-18T13:14:57.659Z,97585.30
2018-06-18T13:17:27.356Z,97582.12
2018-06-18T13:19:57.143Z,97560.77
2018-06-18T13:22:26.883Z,97575.80
2018-06-18T13:24:56.530Z,97582.49
2018-06-18T13:27:31.435Z,97575.43
2018-06-18T13:30:01.107Z,97571.66
2018-06-18T13:32:30.424Z,97573.27
2018-06-18T13:34:59.919Z,97579.50
2018-06-18T13:37:34.431Z,97573.27
2018-06-18T13:40:09.201Z,97554.75
2018-06-18T13:42:43.918Z,97557.30
2018-06-18T13:45:18.783Z,97553.68
2018-06-18T13:47:53.413Z,97557.70
2018-06-18T13:50:23.079Z,97550.59
2018-06-18T13:52:52.750Z,97555.61
2018-06-18T13:55:22.414Z,97563.63
2018-06-18T13:57:52.151Z,97559.72
2018-06-18T14:00:21.852Z,97554.36
2018-06-18T14:02:51.466Z,97544.97
2018-06-18T14:05:21.189Z,97542.27
2018-06-18T14:07:51.073Z,97546.39
2018-06-18T14:10:20.746Z,97540.88
2018-06-18T14:12:50.362Z,97536.80
2018-06-18T14:15:20.280Z,97546.72
2018-06-18T14:17:49.879Z,97538.75
2018-06-18T14:20:27.031Z,97542.34
2018-06-18T14:22:56.503Z,97536.50
2018-06-18T14:25:26.097Z,97534.23
2018-06-18T14:27:55.758Z,97539.30
2018-06-18T14:30:30.606Z,97540.82
2018-06-18T14:33:05.710Z,97525.45
2018-06-18T14:35:40.407Z,97541.17
2018-06-18T14:38:15.291Z,97538.34
2018-06-18T14:40:44.874Z,97535.53
2018-06-18T14:43:14.765Z,97526.78
2018-06-18T14:45:44.575Z,97531.67
2018-06-18T14:48:14.209Z,97528.47
2018-06-18T14:50:43.720Z,97523.07
2018-06-18T14:53:13.555Z,97524.13
2018-06-18T14:55:44.613Z,97532.52
2018-06-18T14:58:14.392Z,97534.83
2018-06-18T15:00:44.267Z,97525.78
2018-06-18T15:03:13.644Z,97530.14
2018-06-18T15:05:43.498Z,97527.08
2018-06-18T15:08:13.218Z,97525.30
2018-06-18T15:10:48.106Z,97531.42
2018-06-18T15:13:17.968Z,97523.56
2018-06-18T15:15:53.283Z,97529.23
2018-06-18T15:18:22.897Z,97531.19
2018-06-18T15:20:54.887Z,97527.08
2018-06-18T15:23:24.538Z,97523.48
2018-06-18T15:25:55.472Z,97522.53
2018-06-18T15:28:26.191Z,97533.95
2018-06-18T15:30:56.075Z,97533.23
2018-06-18T15:33:25.876Z,97524.18
2018-06-18T15:35:55.658Z,97538.27
2018-06-18T15:38:25.346Z,97539.69
2018-06-18T15:40:55.083Z,97537.17
2018-06-18T15:43:24.924Z,97540.27
2018-06-18T15:45:55.666Z,97537.20
2018-06-18T15:48:25.457Z,97545.36
2018-06-18T15:50:55.581Z,97551.89
2018-06-18T15:53:25.200Z,97544.52
2018-06-18T15:55:54.987Z,97551.86
2018-06-18T15:58:24.675Z,97552.00
2018-06-18T16:00:54.608Z,97554.30
2018-06-18T16:03:24.649Z,97553.72
2018-06-18T16:05:54.796Z,97560.19
2018-06-18T16:08:24.860Z,97555.66
2018-06-18T16:10:54.660Z,97565.34
2018-06-18T16:13:24.668Z,97561.40
2018-06-18T16:15:54.795Z,97567.75
2018-06-18T16:18:24.762Z,97567.78
2018-06-18T16:20:54.916Z,97571.63
2018-06-18T16:23:24.897Z,97574.27
2018-06-18T16:25:54.820Z,97576.73
2018-06-18T16:28:25.003Z,97576.20
2018-06-18T16:30:54.820Z,97584.36
2018-06-18T16:33:24.894Z,97590.03
2018-06-18T16:35:54.941Z,97589.66
2018-06-18T16:38:24.862Z,97596.76
2018-06-18T16:40:55.418Z,97583.17
2018-06-18T16:43:25.191Z,97581.70
2018-06-18T16:45:55.473Z,97593.08
2018-06-18T16:48:25.747Z,97593.61
2018-06-18T16:53:31.712Z,97595.92
2018-06-18T16:56:02.069Z,97600.25
2018-06-18T16:58:32.463Z,97595.95
2018-06-18T17:01:02.198Z,97606.52
2018-06-18T17:03:31.994Z,97603.41
2018-06-18T17:06:01.959Z,97603.00
2018-06-18T17:08:31.367Z,97605.33
2018-06-18T17:11:00.991Z,97610.12
2018-06-18T17:13:30.560Z,97604.03
2018-06-18T17:15:59.991Z,97607.78
2018-06-18T17:18:29.542Z,97614.29
2018-06-18T17:20:59.632Z,97616.42
2018-06-18T17:23:29.506Z,97626.61
2018-06-18T17:25:59.264Z,97632.66
2018-06-18T17:28:29.165Z,97631.73
2018-06-18T17:30:58.854Z,97624.11
2018-06-18T17:33:28.620Z,97633.53
2018-06-18T17:35:58.408Z,97636.38
2018-06-18T17:38:28.076Z,97647.27
2018-06-18T17:40:58.064Z,97651.72
2018-06-18T17:43:27.572Z,97648.98
2018-06-18T17:45:57.976Z,97658.84
2018-06-18T17:48:27.629Z,97668.46
2018-06-18T17:56:07.629Z,97676.65
2018-06-18T17:58:37.396Z,97676.26
2018-06-18T18:01:07.104Z,97686.70
2018-06-18T18:03:36.727Z,97675.83
2018-06-18T18:06:06.483Z,97681.94
2018-06-18T18:08:36.296Z,97689.38
2018-06-18T18:11:05.656Z,97691.50
2018-06-18T18:13:35.258Z,97692.00
2018-06-18T18:16:05.428Z,97692.77
2018-06-18T18:18:35.153Z,97703.31
2018-06-18T18:21:04.467Z,97708.72
2018-06-18T18:23:34.120Z,97712.41
2018-06-18T18:26:03.808Z,97706.03
2018-06-18T18:28:33.520Z,97709.70
2018-06-18T18:31:03.530Z,97708.21
2018-06-18T18:33:33.272Z,97719.56
2018-06-18T18:36:03.224Z,97719.70
2018-06-18T18:38:34.037Z,97733.30
2018-06-18T18:41:05.655Z,97732.63
2018-06-18T18:43:35.781Z,97737.84
2018-06-18T18:46:05.733Z,97735.98
2018-06-18T18:48:35.719Z,97742.25
2018-06-18T18:51:06.433Z,97746.39
2018-06-18T18:53:36.061Z,97741.95
2018-06-18T18:56:16.898Z,97753.03
2018-06-18T18:59:26.977Z,97757.71
2018-06-18T19:01:56.863Z,97763.55
2018-06-18T19:04:34.800Z,97767.87
2018-06-18T19:07:04.499Z,97765.17
2018-06-18T19:09:37.287Z,97761.73
2018-06-18T19:12:06.980Z,97767.08
2018-06-18T19:14:36.691Z,97773.26
2018-06-18T19:17:06.411Z,97775.20
2018-06-18T19:19:42.937Z,97784.69
2018-06-18T19:22:13.104Z,97789.02
2018-06-18T19:24:43.275Z,97795.98
2018-06-18T19:27:13.967Z,97800.84
2018-06-18T19:29:43.697Z,97810.78
2018-06-18T19:32:13.343Z,97813.22
2018-06-18T19:34:42.957Z,97820.76
2018-06-18T19:37:12.395Z,97816.70
2018-06-18T19:39:44.385Z,97815.63
2018-06-18T19:42:14.403Z,97819.64
2018-06-18T19:44:44.732Z,97825.31
2018-06-18T19:47:53.432Z,97829.05
2018-06-18T19:50:23.124Z,97833.24
2018-06-18T19:52:55.274Z,97833.55
2018-06-18T19:55:26.820Z,97839.98
2018-06-18T19:57:56.525Z,97841.88
2018-06-18T20:03:05.149Z,97849.05
2018-06-18T20:05:34.911Z,97853.57
2018-06-18T20:08:08.788Z,97849.49
2018-06-18T20:10:38.507Z,97853.53
2018-06-18T20:13:08.350Z,97854.94
2018-06-18T20:15:38.224Z,97855.67
2018-06-18T20:18:08.530Z,97860.42
2018-06-18T20:20:38.296Z,97864.11
2018-06-18T20:23:10.352Z,97863.38
2018-06-18T20:25:44.304Z,97867.89
2018-06-18T20:28:14.358Z,97875.09
2018-06-18T20:30:45.109Z,97879.80
2018-06-18T20:33:16.504Z,97884.14
2018-06-18T20:35:52.464Z,97885.17
2018-06-18T20:38:22.355Z,97886.20
2018-06-18T20:40:52.195Z,97888.91
2018-06-18T20:43:23.160Z,97896.89
2018-06-18T20:45:52.836Z,97894.05
2018-06-18T20:48:22.655Z,97891.98
2018-06-18T20:50:52.320Z,97891.80
2018-06-18T20:53:21.961Z,97896.23
2018-06-18T20:55:51.816Z,97894.23
2018-06-18T20:58:21.667Z,97895.28
2018-06-18T21:00:51.293Z,97885.48
2018-06-18T21:03:21.060Z,97893.61
2018-06-18T21:05:51.172Z,97895.38
2018-06-18T21:08:20.998Z,97896.53
2018-06-18T21:10:50.423Z,97896.11
2018-06-18T21:13:19.946Z,97895.12
2018-06-18T21:15:49.751Z,97897.82
2018-06-18T21:18:19.425Z,97899.64
2018-06-18T21:20:49.149Z,97901.76
2018-06-18T21:23:18.928Z,97900.47
2018-06-18T21:25:48.601Z,97893.09
2018-06-18T21:28:18.600Z,97896.69
2018-06-18T21:30:48.497Z,97897.06
2018-06-18T21:33:18.239Z,97903.25
2018-06-18T21:35:47.852Z,97901.69
2018-06-18T21:38:18.344Z,97902.55
2018-06-18T21:40:48.098Z,97898.97
2018-06-18T21:43:17.720Z,97891.63
2018-06-18T21:45:47.577Z,97896.92
2018-06-18T21:48:24.039Z,97899.97
2018-06-18T21:50:53.806Z,97897.29
2018-06-18T21:53:23.478Z,97900.28
2018-06-18T21:55:53.182Z,97900.09
2018-06-18T21:58:22.914Z,97903.11
2018-06-18T22:00:53.472Z,97903.76
2018-06-18T22:03:23.226Z,97910.14
2018-06-18T22:05:53.018Z,97905.17
2018-06-18T22:08:23.974Z,97902.64
2018-06-18T22:10:53.664Z,97900.14
2018-06-18T22:13:23.290Z,97906.75
2018-06-18T22:15:52.981Z,97901.88
2018-06-18T22:18:22.626Z,97899.66
2018-06-18T22:20:52.349Z,97900.98
2018-06-18T22:23:22.004Z,97901.84
2018-06-18T22:25:51.679Z,97906.89
2018-06-18T22:28:36.230Z,97908.11
2018-06-18T22:31:06.553Z,97904.81
2018-06-18T22:33:36.944Z,97903.12
2018-06-18T22:36:06.673Z,97908.77
2018-06-18T22:38:36.403Z,97902.19
2018-06-18T22:41:05.771Z,97901.61
2018-06-18T22:43:35.522Z,97900.66
2018-06-18T22:46:05.172Z,97902.71
2018-06-18T22:48:35.113Z,97897.48
2018-06-18T22:51:05.356Z,97902.79
2018-06-18T22:53:35.013Z,97899.43
2018-06-18T22:56:04.673Z,97896.11
2018-06-18T22:58:34.435Z,97895.83
2018-06-18T23:01:04.150Z,97897.44
2018-06-18T23:03:33.787Z,97904.16
2018-06-18T23:06:03.670Z,97904.59
2018-06-18T23:08:33.915Z,97894.80
2018-06-18T23:11:03.964Z,97900.20
2018-06-18T23:13:35.397Z,97896.47
2018-06-18T23:16:06.470Z,97899.99
2018-06-18T23:18:36.194Z,97896.73
2018-06-18T23:21:06.009Z,97889.30
2018-06-18T23:23:35.843Z,97893.74
2018-06-18T23:26:05.629Z,97896.47
2018-06-18T23:28:54.483Z,97899.77
2018-06-18T23:31:23.948Z,97888.41
2018-06-18T23:33:53.550Z,97890.45
2018-06-18T23:36:23.223Z,97891.55
2018-06-18T23:38:53.081Z,97896.03
2018-06-18T23:41:24.253Z,97889.80
2018-06-18T23:43:54.021Z,97892.95
2018-06-18T23:46:23.509Z,97885.91
2018-06-18T23:48:53.175Z,97884.36
2018-06-18T23:51:23.392Z,97882.36
2018-06-18T23:53:53.264Z,97883.43
2018-06-18T23:56:23.494Z,97885.33
2018-06-18T23:58:53.355Z,97880.95
